Time,TemperatureF,DewpointF,PressureIn,WindDirection,WindDirectionDegrees,WindSpeedMPH,WindSpeedGustMPH,Humidity,HourlyPrecipIn,Conditions,Clouds,dailyrainin,SoftwareType,DateUTC
2013-04-24 00:03:00,56.5,44.5,29.82,SSW,202,2.2,-999.0,64,-99.99,,,0.00,Acu-Link.com,2013-04-24 04:03:00,
2013-04-24 00:18:00,55.9,44.3,29.82,SW,225,0.0,-999.0,65,-99.99,,,0.00,Acu-Link.com,2013-04-24 04:18:00,
2013-04-24 00:34:00,55.8,44.6,29.81,SW,225,2.2,-999.0,66,-99.99,,,0.00,Acu-Link.com,2013-04-24 04:34:00,
2013-04-24 00:49:00,55.0,44.2,29.81,West,270,0.0,-999.0,67,-99.99,,,0.00,Acu-Link.com,2013-04-24 04:49:00,
2013-04-24 01:04:00,54.9,44.9,29.81,West,270,2.7,-999.0,69,-99.99,,,0.00,Acu-Link.com,2013-04-24 05:04:00,
2013-04-24 01:20:00,54.5,44.9,29.80,SW,225,2.7,-999.0,70,-99.99,,,0.00,Acu-Link.com,2013-04-24 05:20:00,
2013-04-24 01:35:00,54.0,44.8,29.80,SW,225,4.2,-999.0,71,-99.99,,,0.00,Acu-Link.com,2013-04-24 05:35:00,
2013-04-24 01:50:00,53.8,44.6,29.80,West,270,3.2,-999.0,71,-99.99,,,0.00,Acu-Link.com,2013-04-24 05:50:00,
2013-04-24 02:05:00,53.8,45.0,29.80,WSW,247,0.0,-999.0,72,-99.99,,,0.00,Acu-Link.com,2013-04-24 06:05:00,
2013-04-24 02:21:00,53.2,44.8,29.79,West,270,0.0,-999.0,73,-99.99,,,0.00,Acu-Link.com,2013-04-24 06:21:00,
2013-04-24 02:36:00,53.2,44.8,29.79,SW,225,3.7,-999.0,73,-99.99,,,0.00,Acu-Link.com,2013-04-24 06:36:00,
2013-04-24 02:51:00,53.2,44.8,29.79,WSW,247,3.7,-999.0,73,-99.99,,,0.00,Acu-Link.com,2013-04-24 06:51:00,
2013-04-24 03:06:00,53.2,44.8,29.78,SSW,202,2.2,-999.0,73,-99.99,,,0.00,Acu-Link.com,2013-04-24 07:06:00,
2013-04-24 03:22:00,52.7,44.6,29.78,West,270,4.2,-999.0,74,-99.99,,,0.00,Acu-Link.com,2013-04-24 07:22:00,
2013-04-24 03:37:00,52.5,44.5,29.78,SSW,202,3.7,-999.0,74,-99.99,,,0.00,Acu-Link.com,2013-04-24 07:37:00,
2013-04-24 03:52:00,52.5,44.8,29.78,SSW,202,2.7,-999.0,75,-99.99,,,0.00,Acu-Link.com,2013-04-24 07:52:00,
2013-04-24 04:07:00,52.5,44.8,29.78,West,270,3.2,-999.0,75,-99.99,,,0.00,Acu-Link.com,2013-04-24 08:07:00,
2013-04-24 04:23:00,52.2,44.5,29.78,SSE,157,0.0,-999.0,75,-99.99,,,0.00,Acu-Link.com,2013-04-24 08:23:00,
2013-04-24 04:38:00,51.6,44.3,29.77,SW,225,0.0,-999.0,76,-99.99,,,0.00,Acu-Link.com,2013-04-24 08:38:00,
2013-04-24 04:53:00,51.3,44.3,29.78,SSW,202,3.7,-999.0,77,-99.99,,,0.00,Acu-Link.com,2013-04-24 08:53:00,
2013-04-24 05:09:00,51.1,44.1,29.77,SW,225,0.0,-999.0,77,-99.99,,,0.00,Acu-Link.com,2013-04-24 09:09:00,
2013-04-24 05:24:00,50.7,44.1,29.77,SSE,157,0.0,-999.0,78,-99.99,,,0.00,Acu-Link.com,2013-04-24 09:24:00,
2013-04-24 05:39:00,50.2,43.9,29.77,West,270,0.0,-999.0,79,-99.99,,,0.00,Acu-Link.com,2013-04-24 09:39:00,
2013-04-24 05:54:00,49.8,43.6,29.77,East,90,0.0,-999.0,79,-99.99,,,0.00,Acu-Link.com,2013-04-24 09:54:00,
2013-04-24 06:10:00,50.2,44.3,29.77,SW,225,1.7,-999.0,80,-99.99,,,0.00,Acu-Link.com,2013-04-24 10:10:00,
2013-04-24 06:25:00,50.5,44.6,29.77,SW,225,3.2,-999.0,80,-99.99,,,0.00,Acu-Link.com,2013-04-24 10:25:00,
2013-04-24 06:40:00,50.4,44.5,29.77,West,270,2.7,-999.0,80,-99.99,,,0.00,Acu-Link.com,2013-04-24 10:40:00,
2013-04-24 06:55:00,50.4,44.5,29.78,WSW,247,1.7,-999.0,80,-99.99,,,0.00,Acu-Link.com,2013-04-24 10:55:00,
2013-04-24 07:10:00,50.0,44.4,29.78,West,270,2.7,-999.0,81,-99.99,,,0.00,Acu-Link.com,2013-04-24 11:10:00,
2013-04-24 07:26:00,50.2,44.6,29.79,SW,225,2.7,-999.0,81,-99.99,,,0.00,Acu-Link.com,2013-04-24 11:26:00,
2013-04-24 07:41:00,50.4,44.8,29.79,WSW,247,1.7,-999.0,81,-99.99,,,0.00,Acu-Link.com,2013-04-24 11:41:00,
2013-04-24 07:56:00,50.9,45.3,29.79,SW,225,1.7,-999.0,81,-99.99,,,0.00,Acu-Link.com,2013-04-24 11:56:00,
2013-04-24 08:11:00,51.3,45.7,29.78,SW,225,1.1,-999.0,81,-99.99,,,0.00,Acu-Link.com,2013-04-24 12:11:00,
2013-04-24 08:26:00,52.2,45.9,29.77,SSW,202,3.7,-999.0,79,-99.99,,,0.00,Acu-Link.com,2013-04-24 12:26:00,
2013-04-24 08:42:00,53.1,46.1,29.78,WSW,247,4.2,-999.0,77,-99.99,,,0.00,Acu-Link.com,2013-04-24 12:42:00,
2013-04-24 08:57:00,53.1,46.1,29.79,SW,225,5.3,-999.0,77,-99.99,,,0.00,Acu-Link.com,2013-04-24 12:57:00,
2013-04-24 09:12:00,53.8,46.8,29.79,SSW,202,4.7,-999.0,77,-99.99,,,0.00,Acu-Link.com,2013-04-24 13:12:00,
2013-04-24 09:27:00,54.3,46.5,29.79,SSW,202,5.8,-999.0,75,-99.99,,,0.00,Acu-Link.com,2013-04-24 13:27:00,
2013-04-24 09:42:00,55.2,47.1,29.78,SW,225,3.2,-999.0,74,-99.99,,,0.00,Acu-Link.com,2013-04-24 13:42:00,
2013-04-24 09:57:00,56.7,47.8,29.77,SSW,202,6.3,-999.0,72,-99.99,,,0.00,Acu-Link.com,2013-04-24 13:57:00,
2013-04-24 10:12:00,57.9,48.9,29.76,South,180,4.7,-999.0,72,-99.99,,,0.00,Acu-Link.com,2013-04-24 14:12:00,
2013-04-24 10:27:00,58.1,48.7,29.77,SSW,202,6.8,-999.0,71,-99.99,,,0.00,Acu-Link.com,2013-04-24 14:27:00,
2013-04-24 10:43:00,58.6,49.2,29.77,SSW,202,7.8,-999.0,71,-99.99,,,0.00,Acu-Link.com,2013-04-24 14:43:00,
2013-04-24 10:58:00,59.9,50.1,29.77,West,270,7.3,-999.0,70,-99.99,,,0.00,Acu-Link.com,2013-04-24 14:58:00,
2013-04-24 11:13:00,60.8,50.6,29.77,SSW,202,10.4,-999.0,69,-99.99,,,0.00,Acu-Link.com,2013-04-24 15:13:00,
2013-04-24 11:28:00,62.4,51.7,29.77,SSW,202,7.3,-999.0,68,-99.99,,,0.00,Acu-Link.com,2013-04-24 15:28:00,
2013-04-24 11:43:00,62.8,52.1,29.78,South,180,9.4,-999.0,68,-99.99,,,0.00,Acu-Link.com,2013-04-24 15:43:00,
2013-04-24 11:58:00,63.5,52.3,29.79,SSW,202,11.4,-999.0,67,-99.99,,,0.00,Acu-Link.com,2013-04-24 15:58:00,
2013-04-24 12:13:00,64.8,53.2,29.79,SW,225,6.3,-999.0,66,-99.99,,,0.00,Acu-Link.com,2013-04-24 16:13:00,
2013-04-24 12:28:00,64.2,52.2,29.79,SSW,202,5.8,-999.0,65,-99.99,,,0.00,Acu-Link.com,2013-04-24 16:28:00,
2013-04-24 12:43:00,63.9,52.3,29.79,SSW,202,5.8,-999.0,66,-99.99,,,0.00,Acu-Link.com,2013-04-24 16:43:00,
2013-04-24 12:58:00,63.1,52.0,29.78,SSW,202,9.9,-999.0,67,-99.99,,,0.00,Acu-Link.com,2013-04-24 16:58:00,
2013-04-24 13:13:00,63.1,52.0,29.77,SSW,202,6.3,-999.0,67,-99.99,,,0.00,Acu-Link.com,2013-04-24 17:13:00,
2013-04-24 13:28:00,64.8,53.2,29.77,SSW,202,10.4,-999.0,66,-99.99,,,0.00,Acu-Link.com,2013-04-24 17:28:00,
2013-04-24 13:43:00,64.2,53.0,29.76,West,270,5.8,-999.0,67,-99.99,,,0.00,Acu-Link.com,2013-04-24 17:43:00,
2013-04-24 13:59:00,65.8,53.3,29.77,SSW,202,7.3,-999.0,64,-99.99,,,0.00,Acu-Link.com,2013-04-24 17:59:00,
2013-04-24 14:14:00,65.7,53.2,29.76,SSW,202,11.4,-999.0,64,-99.99,,,0.00,Acu-Link.com,2013-04-24 18:14:00,
2013-04-24 14:29:00,65.7,53.6,29.75,West,270,5.8,-999.0,65,-99.99,,,0.00,Acu-Link.com,2013-04-24 18:29:00,
2013-04-24 14:45:00,66.2,53.2,29.76,SSW,202,8.3,-999.0,63,-99.99,,,0.00,Acu-Link.com,2013-04-24 18:45:00,
2013-04-24 15:00:00,66.6,53.6,29.75,SW,225,7.3,-999.0,63,-99.99,,,0.00,Acu-Link.com,2013-04-24 19:00:00,
2013-04-24 15:15:00,66.0,52.6,29.74,SSW,202,5.8,-999.0,62,-99.99,,,0.00,Acu-Link.com,2013-04-24 19:15:00,
2013-04-24 15:30:00,67.1,53.2,29.74,WSW,247,6.8,-999.0,61,-99.99,,,0.00,Acu-Link.com,2013-04-24 19:30:00,
2013-04-24 15:45:00,66.7,53.3,29.74,SSW,202,6.8,-999.0,62,-99.99,,,0.00,Acu-Link.com,2013-04-24 19:45:00,
2013-04-24 16:01:00,67.3,54.3,29.73,West,270,4.7,-999.0,63,-99.99,,,0.00,Acu-Link.com,2013-04-24 20:01:00,
2013-04-24 16:16:00,66.9,53.9,29.72,SSW,202,5.8,-999.0,63,-99.99,,,0.00,Acu-Link.com,2013-04-24 20:16:00,
2013-04-24 16:31:00,66.6,54.0,29.72,South,180,7.8,-999.0,64,-99.99,,,0.00,Acu-Link.com,2013-04-24 20:31:00,
2013-04-24 16:46:00,66.0,53.9,29.72,SE,135,4.7,-999.0,65,-99.99,,,0.00,Acu-Link.com,2013-04-24 20:46:00,
2013-04-24 17:01:00,66.0,53.9,29.72,SSW,202,4.7,-999.0,65,-99.99,,,0.00,Acu-Link.com,2013-04-24 21:01:00,
2013-04-24 17:16:00,65.7,54.0,29.73,WSW,247,6.3,-999.0,66,-99.99,,,0.00,Acu-Link.com,2013-04-24 21:16:00,
2013-04-24 17:32:00,65.3,53.6,29.73,SW,225,5.8,-999.0,66,-99.99,,,0.00,Acu-Link.com,2013-04-24 21:32:00,
2013-04-24 17:47:00,65.5,53.8,29.73,SSW,202,4.7,-999.0,66,-99.99,,,0.00,Acu-Link.com,2013-04-24 21:47:00,
2013-04-24 18:02:00,65.1,53.5,29.73,WSW,247,3.7,-999.0,66,-99.99,,,0.00,Acu-Link.com,2013-04-24 22:02:00,
2013-04-24 18:17:00,64.0,52.8,29.74,SSW,202,7.8,-999.0,67,-99.99,,,0.00,Acu-Link.com,2013-04-24 22:17:00,
2013-04-24 18:33:00,63.0,52.7,29.74,SW,225,4.7,-999.0,69,-99.99,,,0.00,Acu-Link.com,2013-04-24 22:33:00,
2013-04-24 18:48:00,61.9,52.8,29.74,SSW,202,6.3,-999.0,72,-99.99,,,0.00,Acu-Link.com,2013-04-24 22:48:00,
2013-04-24 19:03:00,61.7,53.3,29.74,SSW,202,4.7,-999.0,74,-99.99,,,0.00,Acu-Link.com,2013-04-24 23:03:00,
2013-04-24 19:18:00,61.3,53.3,29.73,WSW,247,7.8,-999.0,75,-99.99,,,0.00,Acu-Link.com,2013-04-24 23:18:00,
2013-04-24 19:34:00,60.4,53.2,29.73,WSW,247,8.9,-999.0,77,-99.99,,,0.00,Acu-Link.com,2013-04-24 23:34:00,
2013-04-24 19:49:00,60.1,53.2,29.73,SSW,202,5.8,-999.0,78,-99.99,,,0.00,Acu-Link.com,2013-04-24 23:49:00,
2013-04-24 20:04:00,59.7,53.5,29.73,SSW,202,4.7,-999.0,80,-99.99,,,0.00,Acu-Link.com,2013-04-25 00:04:00,
2013-04-24 20:19:00,59.7,53.9,29.73,West,270,5.8,-999.0,81,-99.99,,,0.00,Acu-Link.com,2013-04-25 00:19:00,
2013-04-24 20:34:00,59.5,53.7,29.74,SSW,202,7.3,-999.0,81,-99.99,,,0.00,Acu-Link.com,2013-04-25 00:34:00,
2013-04-24 20:49:00,59.5,54.0,29.73,SSW,202,3.2,-999.0,82,-99.99,,,0.00,Acu-Link.com,2013-04-25 00:49:00,
2013-04-24 21:04:00,59.4,53.9,29.74,SSW,202,6.8,-999.0,82,-99.99,,,0.00,Acu-Link.com,2013-04-25 01:04:00,
2013-04-24 21:19:00,59.2,54.0,29.73,SW,225,6.8,-999.0,83,-99.99,,,0.00,Acu-Link.com,2013-04-25 01:19:00,
2013-04-24 21:35:00,59.0,54.2,29.74,SSW,202,5.3,-999.0,84,-99.99,,,0.00,Acu-Link.com,2013-04-25 01:35:00,
2013-04-24 21:50:00,58.8,54.3,29.74,SW,225,5.3,-999.0,85,-99.99,,,0.00,Acu-Link.com,2013-04-25 01:50:00,
2013-04-24 22:05:00,58.6,54.1,29.75,West,270,4.2,-999.0,85,-99.99,,,0.00,Acu-Link.com,2013-04-25 02:05:00,
2013-04-24 22:20:00,58.3,53.8,29.75,SSW,202,5.3,-999.0,85,-99.99,,,0.00,Acu-Link.com,2013-04-25 02:20:00,
2013-04-24 22:35:00,58.3,54.1,29.75,SSW,202,6.3,-999.0,86,-99.99,,,0.00,Acu-Link.com,2013-04-25 02:35:00,
2013-04-24 22:50:00,58.1,53.9,29.75,WSW,247,3.2,-999.0,86,-99.99,,,0.00,Acu-Link.com,2013-04-25 02:50:00,
2013-04-24 23:05:00,57.9,54.1,29.74,SSW,202,6.3,-999.0,87,-99.99,,,0.00,Acu-Link.com,2013-04-25 03:05:00,
2013-04-24 23:21:00,57.6,53.8,29.75,SSW,202,3.7,-999.0,87,-99.99,,,0.00,Acu-Link.com,2013-04-25 03:21:00,
2013-04-24 23:36:00,57.6,53.8,29.76,SSW,202,1.7,-999.0,87,-99.99,,,0.00,Acu-Link.com,2013-04-25 03:36:00,
2013-04-24 23:51:00,57.7,52.6,29.76,ENE,67,3.7,-999.0,83,-99.99,,,0.00,Acu-Link.com,2013-04-25 03:51:00,